Flight Track Log - Related Links

Times and Time Zones

All times are in EDT time to prevent confusion due to time zone crossing. See the EJA101 flight status page for this flight to view local times or setup timezone preferences in your user account.

Time Position Orientation Groundspeed Altitude Reporting Facility
EDT Latitude Longitude Course Direction KTS MPH feet Rate Location/Type
Thu 07:48:13 PM 38.2069 -122.3061 142° Southeast 151 174 1,700  Level Oakland Center
Thu 07:49:15 PM 38.1750 -122.3789 241° Southwest 232 267 4,700 3,463 Climbing Oakland Center
Thu 07:50:16 PM 38.0967 -122.3811 181° South 277 319 8,800 3,268 Climbing Oakland Center
Thu 07:51:18 PM 38.0233 -122.3358 154° Southeast 318 366 11,400 2,878 Climbing Oakland Center
Thu 07:52:00 PM 37.7167 -122.2060 90° East  Level FlightAware Approximate
Thu 07:52:19 PM 37.9847 -122.2153 112° Southeast 363 418 14,700  Level Oakland Center
Thu 07:53:00 PM 37.6235 -122.1235 142° Southeast  Level FlightAware Approximate
Thu 07:53:20 PM 37.9117 -122.1228 135° Southeast 378 435 17,400  Level Oakland Center
Thu 07:54:22 PM 37.8258 -122.0372 142° Southeast 389 448 20,300 2,732 Climbing Oakland Center
Thu 07:55:23 PM 37.7364 -121.9503 142° Southeast 401 461 23,000 2,683 Climbing Oakland Center
Thu 07:56:25 PM 37.6436 -121.8581 142° Southeast 419 482 25,800 2,390 Climbing Oakland Center
Thu 07:57:26 PM 37.5478 -121.7656 143° Southeast 432 497 27,900 2,195 Climbing Oakland Center
Thu 07:58:28 PM 37.4258 -121.6486 143° Southeast 459 528 30,300 2,390 Climbing Oakland Center
Thu 07:59:29 PM 37.3269 -121.5531 142° Southeast 471 542 32,800 2,361 Climbing Oakland Center
Thu 08:00:30 PM 37.2231 -121.4517 142° Southeast 474 545 35,100 2,146 Climbing Oakland Center
Thu 08:01:32 PM 37.1172 -121.3517 143° Southeast 476 548 37,200 2,293 Climbing Oakland Center
Thu 08:02:33 PM 37.0072 -121.2453 142° Southeast 475 547 39,800 1,854 Climbing Oakland Center
Thu 08:03:35 PM 36.8861 -121.1308 143° Southeast 476 548 41,000 585 Climbing Oakland Center
Thu 08:04:36 PM 36.8006 -121.0203 134° Southeast 505 581 41,000  Level Oakland Center
Thu 08:05:37 PM 36.7094 -120.8872 130° Southeast 506 582 41,000  Level Oakland Center
Thu 08:06:39 PM 36.5975 -120.7322 132° Southeast 502 578 41,000  Level Oakland Center
Thu 08:07:40 PM 36.5039 -120.5969 131° Southeast 512 589 41,000  Level Oakland Center
Thu 08:08:42 PM 36.4103 -120.4653 131° Southeast 509 586 41,000 -49 Level Oakland Center
Thu 08:09:43 PM 36.3161 -120.3378 132° Southeast 503 579 40,900  Descending Oakland Center
Thu 08:10:45 PM 36.2225 -120.2025 131° Southeast 512 589 41,000  Climbing Oakland Center
Thu 08:11:46 PM 36.1281 -120.0733 132° Southeast 507 583 40,900  Descending Oakland Center
Thu 08:12:48 PM 36.0347 -119.9442 132° Southeast 503 579 41,000 49 Climbing Oakland Center
Thu 08:13:49 PM 35.9406 -119.8153 132° Southeast 503 579 41,000  Level Oakland Center
Thu 08:14:50 PM 35.8494 -119.6897 132° Southeast 493 567 41,000  Level Oakland Center
Thu 08:15:52 PM 35.7564 -119.5631 132° Southeast 495 570 41,000  Level Oakland Center
Thu 08:16:53 PM 35.6439 -119.4114 132° Southeast 496 571 41,000  Level Oakland Center
Thu 08:17:23 PM 35.6081 -119.3611 131° Southeast 497 572 41,000 -63 Level Los Angeles Center
Thu 08:18:28 PM 35.5156 -119.2350 132° Southeast 497 572 40,900 -48 Descending Los Angeles Center
Thu 08:19:28 PM 35.4225 -119.1103 132° Southeast 497 572 40,900 49 Level Los Angeles Center
Thu 08:20:30 PM 35.3294 -118.9850 132° Southeast 496 571 41,000 48 Climbing Los Angeles Center
Thu 08:21:32 PM 35.2192 -118.8364 132° Southeast 492 566 41,000  Level Los Angeles Center
Thu 08:22:34 PM 35.1258 -118.7142 133° Southeast 492 566 41,000 -48 Level Los Angeles Center
Thu 08:23:36 PM 35.0339 -118.5928 133° Southeast 489 563 40,900  Descending Los Angeles Center
Thu 08:24:38 PM 34.9478 -118.4783 133° Southeast 488 562 41,000 48 Climbing Los Angeles Center
Thu 08:25:40 PM 34.8389 -118.3364 133° Southeast 483 556 41,000  Level Los Angeles Center
Thu 08:26:42 PM 34.7478 -118.2186 133° Southeast 483 556 41,000  Level Los Angeles Center
Thu 08:27:49 PM 34.6592 -118.1006 132° Southeast 480 552 41,000  Level Los Angeles Center
Thu 08:28:47 PM 34.6000 -117.9597 117° Southeast 483 556 41,000  Level Los Angeles Center
Thu 08:29:49 PM 34.5542 -117.8083 110° East 482 555 41,000  Level Los Angeles Center
Thu 08:30:51 PM 34.4997 -117.6300 110° East 482 555 41,000  Level Los Angeles Center
Thu 08:31:53 PM 34.4542 -117.4783 110° East 485 558 41,000  Level Los Angeles Center
Thu 08:32:55 PM 34.4097 -117.3319 110° East 479 551 41,000  Level Los Angeles Center
Thu 08:33:57 PM 34.3678 -117.1869 109° East 477 549 41,000  Level Los Angeles Center
Thu 08:34:59 PM 34.3183 -117.0328 111° Southeast 482 555 41,000  Level Los Angeles Center
Thu 08:36:01 PM 34.2733 -116.8831 110° East 479 551 41,000  Level Los Angeles Center
Thu 08:37:04 PM 34.2181 -116.7047 111° Southeast 478 550 41,000  Level Los Angeles Center
Thu 08:38:06 PM 34.1714 -116.5556 111° Southeast 481 554 41,000  Level Los Angeles Center
Thu 08:39:08 PM 34.1244 -116.3914 109° East 479 551 41,000  Level Los Angeles Center
Thu 08:40:10 PM 34.0761 -116.2458 112° Southeast 471 542 41,000  Level Los Angeles Center
Thu 08:41:12 PM 34.0294 -116.0967 111° Southeast 473 544 41,000  Level Los Angeles Center
Thu 08:43:00 PM 33.9505 -115.8551 111° Southeast  Level FlightAware Approximate
Thu 08:44:18 PM 33.8803 -115.6225 111° Southeast 472 543 41,000  Level Los Angeles Center
Thu 08:45:20 PM 33.8492 -115.4689 104° East 473 544 41,000  Level Los Angeles Center
Thu 08:46:22 PM 33.8169 -115.3156 104° East 472 543 41,000  Level Los Angeles Center
Thu 08:47:24 PM 33.7861 -115.1633 104° East 470 541 41,000  Level Los Angeles Center
Thu 08:48:27 PM 33.7542 -115.0083 104° East 476 548 41,000  Level Los Angeles Center
Thu 08:49:29 PM 33.7219 -114.8556 104° East 472 543 41,000  Level Los Angeles Center
Thu 08:50:31 PM 33.6836 -114.6742 104° East 469 540 41,000  Level Los Angeles Center
Thu 08:51:33 PM 33.6522 -114.5239 104° East 465 535 41,000  Level Los Angeles Center
Thu 08:52:35 PM 33.6206 -114.3744 104° East 463 533 41,000  Level Los Angeles Center
Thu 08:53:34 PM 33.5928 -114.2317 103° East 465 535 41,000  Level Albuquerque Center
Thu 08:54:35 PM 33.5592 -114.0828 105° East 464 534 41,000 -49 Level Albuquerque Center
Thu 08:55:37 PM 33.5278 -113.9322 104° East 464 534 40,900  Descending Albuquerque Center
Thu 08:56:39 PM 33.4744 -113.7944 115° Southeast 460 529 41,000 48 Climbing Albuquerque Center
Thu 08:57:41 PM 33.4019 -113.6322 118° Southeast 461 531 41,000 -387 Level Albuquerque Center
Thu 08:58:43 PM 33.3400 -113.4997 119° Southeast 457 526 40,200 -1,113 Descending Albuquerque Center
Thu 08:59:45 PM 33.2775 -113.3653 119° Southeast 459 528 38,700 -1,512 Descending Albuquerque Center
Thu 09:00:46 PM 33.2144 -113.2292 119° Southeast 462 532 37,100 -878 Descending Albuquerque Center
Thu 09:01:48 PM 33.1508 -113.0914 119° Southeast 467 537 36,900 -97 Descending Albuquerque Center
Thu 09:02:50 PM 33.0861 -112.9503 119° Southeast 477 549 36,900 -919 Level Albuquerque Center
Thu 09:03:52 PM 33.0211 -112.8111 119° Southeast 479 551 35,000 -1,887 Descending Albuquerque Center
Thu 09:04:54 PM 32.9572 -112.6728 119° Southeast 476 548 33,000 -2,146 Descending Albuquerque Center
Thu 09:05:55 PM 32.8897 -112.5000 115° Southeast 477 549 30,600 -2,098 Descending Albuquerque Center
Thu 09:06:57 PM 32.8342 -112.3547 114° Southeast 481 554 28,700 -1,984 Descending Albuquerque Center
Thu 09:07:59 PM 32.7853 -112.2275 115° Southeast 466 536 26,500 -1,355 Descending Albuquerque Center
Thu 09:09:01 PM 32.7353 -112.1000 115° Southeast 440 506 25,900 -1,463 Descending Albuquerque Center
Thu 09:10:02 PM 32.6864 -111.9747 115° Southeast 427 491 23,500 -2,341 Descending Albuquerque Center
Thu 09:11:04 PM 32.6333 -111.8347 114° Southeast 396 456 21,100 -1,415 Descending Albuquerque Center
Thu 09:11:48 PM 32.6003 -111.7606 118° Southeast 380 437 21,000 -61 Descending Albuquerque Center
Thu 09:12:42 PM 32.5633 -111.6667 115° Southeast 341 392 21,000 -365 Level Albuquerque Center
Thu 09:13:43 PM 32.5164 -111.5781 122° Southeast 325 374 20,300 -1,537 Descending Albuquerque Center
Thu 09:14:43 PM 32.4528 -111.5014 135° Southeast 324 373 17,900 -2,331 Descending Albuquerque Center
Thu 09:15:44 PM 32.3833 -111.4292 139° Southeast 328 377 15,600 -2,311 Descending Albuquerque Center
Thu 09:16:45 PM 32.3197 -111.3553 136° Southeast 325 374 13,200 -2,440 Descending Albuquerque Center
Thu 09:17:15 PM 32.2861 -111.3167 136° Southeast 324 373 11,900 -2,600 Descending Albuquerque Center
Thu 09:17:45 PM 32.2547 -111.2844 139° Southeast 321 369 10,600 -1,967 Descending Albuquerque Center
Thu 09:18:16 PM 32.2236 -111.2458 134° Southeast 316 364 9,900 -1,574 Descending Albuquerque Center
Thu 09:18:46 PM 32.1914 -111.2108 137° Southeast 297 342 9,000 -1,645 Descending Albuquerque Center
Thu 09:19:18 PM 32.1675 -111.1786 131° Southeast 295 339 8,200 -638 Descending Albuquerque Center
Thu 09:20:20 PM 32.1122 -111.1128 135° Southeast 287 330 8,000 -242 Descending Albuquerque Center
Thu 09:21:22 PM 32.0614 -111.0481 133° Southeast 280 322 7,700 -683 Descending Albuquerque Center
Thu 09:22:23 PM 32.0275 -110.9822 121° Southeast 254 292 6,600 -1,024 Descending Albuquerque Center
Thu 09:23:25 PM 32.0194 -110.9158 98° East 226 260 5,600 -1,151 Descending Albuquerque Center
Thu 09:24:49 PM 32.0672 -110.8817 31° Northeast 138 159 3,800 -1,034 Descending Albuquerque Center
Thu 09:25:50 PM 32.0894 -110.9083 315° West 114 131 3,100 -689 Descending Albuquerque Center

Login

Don't have an account? Register now (free) for customized features, flight alerts, and more!